createdAt,value
2022-12-26T00:03:01.029Z,4.90
2022-12-26T00:06:04.600Z,4.80
2022-12-26T00:09:08.640Z,4.80
2022-12-26T00:12:11.787Z,4.80
2022-12-26T00:15:14.922Z,4.80
2022-12-26T00:18:19.540Z,4.80
2022-12-26T00:21:23.883Z,4.90
2022-12-26T00:24:27.051Z,4.90
2022-12-26T00:27:30.268Z,4.80
2022-12-26T00:30:33.448Z,4.70
2022-12-26T00:33:39.141Z,4.70
2022-12-26T00:36:42.439Z,4.70
2022-12-26T00:39:45.625Z,4.70
2022-12-26T00:42:48.792Z,4.70
2022-12-26T00:45:51.964Z,4.70
2022-12-26T00:48:56.556Z,4.60
2022-12-26T00:51:59.718Z,4.50
2022-12-26T00:55:02.904Z,4.50
2022-12-26T00:58:06.114Z,4.50
2022-12-26T01:01:15.847Z,4.50
2022-12-26T01:04:20.538Z,4.40
2022-12-26T01:07:23.757Z,4.40
2022-12-26T01:10:28.071Z,4.30
2022-12-26T01:13:31.308Z,4.30
2022-12-26T01:16:34.615Z,4.30
2022-12-26T01:19:39.271Z,4.30
2022-12-26T01:22:42.622Z,4.40
2022-12-26T01:26:17.557Z,4.40
2022-12-26T01:29:10.296Z,4.30
2022-12-26T01:32:13.558Z,4.10
2022-12-26T01:35:18.324Z,4.00
2022-12-26T01:38:21.930Z,3.90
2022-12-26T01:41:25.110Z,4.00
2022-12-26T01:44:59.238Z,4.00
2022-12-26T01:48:06.336Z,4.00
2022-12-26T01:51:12.139Z,4.00
2022-12-26T01:54:39.645Z,4.00
2022-12-26T01:57:43.347Z,4.00
2022-12-26T02:00:46.776Z,4.00
2022-12-26T02:04:07.607Z,3.80
2022-12-26T02:07:12.388Z,3.80
2022-12-26T02:10:18.885Z,3.80
2022-12-26T02:13:22.217Z,3.90
2022-12-26T02:16:25.805Z,4.00
2022-12-26T02:19:40.307Z,4.10
2022-12-26T02:23:24.829Z,4.10
2022-12-26T02:26:49.109Z,4.10
2022-12-26T02:30:33.400Z,4.10
2022-12-26T02:33:46.158Z,4.10
2022-12-26T02:37:07.078Z,4.10
2022-12-26T02:40:43.031Z,4.10
2022-12-26T02:43:55.934Z,4.10
2022-12-26T02:47:09.572Z,4.00
2022-12-26T02:50:39.084Z,3.90
2022-12-26T02:54:09.561Z,3.90
2022-12-26T02:57:35.641Z,4.00
2022-12-26T03:00:59.297Z,4.00
2022-12-26T03:04:23.819Z,4.00
2022-12-26T03:07:48.593Z,3.90
2022-12-26T03:11:10.339Z,3.90
2022-12-26T03:14:19.106Z,4.00
2022-12-26T03:17:26.848Z,3.90
2022-12-26T03:20:34.813Z,3.90
2022-12-26T03:23:41.203Z,3.90
2022-12-26T03:26:49.563Z,3.90
2022-12-26T03:30:10.032Z,3.90
2022-12-26T03:33:27.138Z,3.80
2022-12-26T03:36:44.469Z,3.70
2022-12-26T03:40:16.653Z,3.70
2022-12-26T03:43:48.820Z,3.70
2022-12-26T03:47:19.681Z,3.70
2022-12-26T03:50:48.282Z,3.70
2022-12-26T03:54:27.859Z,3.70
2022-12-26T03:57:54.577Z,3.70
2022-12-26T04:01:16.831Z,3.70
2022-12-26T04:04:39.232Z,3.60
2022-12-26T04:08:05.848Z,3.60
2022-12-26T04:11:31.611Z,3.50
2022-12-26T04:14:59.300Z,3.60
2022-12-26T04:18:27.365Z,3.60
2022-12-26T04:21:54.548Z,3.60
2022-12-26T04:25:21.112Z,3.50
2022-12-26T04:29:03.223Z,3.50
2022-12-26T04:32:30.598Z,3.40
2022-12-26T04:35:56.029Z,3.50
2022-12-26T04:39:21.227Z,3.50
2022-12-26T04:42:43.879Z,3.60
2022-12-26T04:45:48.448Z,3.60
2022-12-26T04:49:12.009Z,3.60
2022-12-26T04:52:16.268Z,3.60
2022-12-26T04:55:19.862Z,3.60
2022-12-26T04:58:24.354Z,3.70
2022-12-26T05:01:46.496Z,3.60
2022-12-26T05:05:07.231Z,3.60
2022-12-26T05:08:44.574Z,3.60
2022-12-26T05:11:48.085Z,3.60
2022-12-26T05:14:51.251Z,3.60
2022-12-26T05:18:13.233Z,3.60
2022-12-26T05:21:36.567Z,3.60
2022-12-26T05:24:59.603Z,3.50
2022-12-26T05:28:20.395Z,3.50
2022-12-26T05:31:23.765Z,3.50
2022-12-26T05:34:27.408Z,3.50
2022-12-26T05:37:30.588Z,3.50
2022-12-26T05:40:33.813Z,3.50
2022-12-26T05:43:37.027Z,3.60
2022-12-26T05:46:40.622Z,3.60
2022-12-26T05:49:45.284Z,3.50
2022-12-26T05:52:48.484Z,3.50
2022-12-26T05:55:51.651Z,3.50
2022-12-26T05:58:59.487Z,3.60
2022-12-26T06:02:02.776Z,3.60
2022-12-26T06:05:08.019Z,3.50
2022-12-26T06:08:11.156Z,3.50
2022-12-26T06:11:15.051Z,3.50
2022-12-26T06:14:18.256Z,3.50
2022-12-26T06:17:21.483Z,3.50
2022-12-26T06:20:26.009Z,3.40
2022-12-26T06:23:29.161Z,3.50
2022-12-26T06:26:32.265Z,3.50
2022-12-26T06:29:35.496Z,3.50
2022-12-26T06:32:38.627Z,3.50
2022-12-26T06:35:43.149Z,3.50
2022-12-26T06:38:46.481Z,3.50
2022-12-26T06:41:49.626Z,3.50
2022-12-26T06:44:52.765Z,3.50
2022-12-26T06:47:55.894Z,3.50
2022-12-26T06:51:04.926Z,3.40
2022-12-26T06:54:08.801Z,3.40
2022-12-26T06:57:11.932Z,3.50
2022-12-26T07:00:16.571Z,3.50
2022-12-26T07:03:19.749Z,3.50
2022-12-26T07:06:26.357Z,3.60
2022-12-26T07:09:33.586Z,3.70
2022-12-26T07:12:37.306Z,3.80
2022-12-26T07:15:40.509Z,3.80
2022-12-26T07:18:43.861Z,3.90
2022-12-26T07:21:48.475Z,3.90
2022-12-26T07:24:51.636Z,4.00
2022-12-26T07:27:55.095Z,4.00
2022-12-26T07:31:00.039Z,4.10
2022-12-26T07:34:03.259Z,4.10
2022-12-26T07:37:07.841Z,4.30
2022-12-26T07:40:12.280Z,4.40
2022-12-26T07:43:15.461Z,4.40
2022-12-26T07:46:18.898Z,4.50
2022-12-26T07:49:22.116Z,4.60
2022-12-26T07:52:26.681Z,4.70
2022-12-26T07:55:29.878Z,4.80
2022-12-26T07:58:33.232Z,4.80
2022-12-26T08:01:36.477Z,4.80
2022-12-26T08:04:39.703Z,4.90
2022-12-26T08:07:44.320Z,5.00
2022-12-26T08:10:47.639Z,5.10
2022-12-26T08:13:51.094Z,5.20
2022-12-26T08:16:54.325Z,5.30
2022-12-26T08:19:57.504Z,5.30
2022-12-26T08:23:02.106Z,5.40
2022-12-26T08:26:09.383Z,5.60
2022-12-26T08:29:13.056Z,5.70
2022-12-26T08:32:16.496Z,5.80
2022-12-26T08:35:19.693Z,5.80
2022-12-26T08:38:27.246Z,5.90
2022-12-26T08:41:34.646Z,6.00
2022-12-26T08:44:37.880Z,6.10
2022-12-26T08:47:41.056Z,6.30
2022-12-26T08:50:44.511Z,6.50
2022-12-26T08:53:50.635Z,6.60
2022-12-26T08:56:53.845Z,6.70
2022-12-26T08:59:57.094Z,6.80
2022-12-26T09:03:00.345Z,7.00
2022-12-26T09:06:06.461Z,7.10
2022-12-26T09:09:12.814Z,7.30
2022-12-26T09:12:16.031Z,7.50
2022-12-26T09:15:19.222Z,7.70
2022-12-26T09:18:22.368Z,7.90
2022-12-26T09:21:26.334Z,8.00
2022-12-26T09:24:31.041Z,8.10
2022-12-26T09:27:34.253Z,8.20
2022-12-26T09:30:38.672Z,8.40
2022-12-26T09:33:42.323Z,8.70
2022-12-26T09:36:45.663Z,8.90
2022-12-26T09:39:50.410Z,9.10
2022-12-26T09:43:03.404Z,9.40
2022-12-26T09:46:17.988Z,9.50
2022-12-26T09:49:24.332Z,9.60
2022-12-26T09:52:38.730Z,9.70
2022-12-26T09:55:48.137Z,9.90
2022-12-26T09:58:54.660Z,10.00
2022-12-26T10:01:57.990Z,10.10
2022-12-26T10:05:01.745Z,10.10
2022-12-26T10:08:17.455Z,10.10
2022-12-26T10:11:28.621Z,10.20
2022-12-26T10:14:41.894Z,10.20
2022-12-26T10:17:51.562Z,10.30
2022-12-26T10:21:22.248Z,10.50
2022-12-26T10:24:28.469Z,10.60
2022-12-26T10:27:42.267Z,10.70
2022-12-26T10:30:48.129Z,10.90
2022-12-26T10:33:57.231Z,11.00
2022-12-26T10:37:03.628Z,11.20
2022-12-26T10:40:18.077Z,11.40
2022-12-26T10:43:30.005Z,11.70
2022-12-26T10:47:07.298Z,11.60
2022-12-26T10:50:20.309Z,11.20
2022-12-26T10:53:27.208Z,10.90
2022-12-26T10:56:32.330Z,10.60
2022-12-26T10:59:43.299Z,10.50
2022-12-26T11:02:46.819Z,10.50
2022-12-26T11:06:09.454Z,10.50
2022-12-26T11:09:31.567Z,10.60
2022-12-26T11:12:41.324Z,10.80
2022-12-26T11:15:52.176Z,10.80
2022-12-26T11:18:55.489Z,10.60
2022-12-26T11:22:26.070Z,11.30
2022-12-26T11:25:30.429Z,12.10
2022-12-26T11:28:36.513Z,12.40
2022-12-26T11:31:43.879Z,12.70
2022-12-26T11:34:49.133Z,13.00
2022-12-26T11:37:56.336Z,13.20
2022-12-26T11:41:13.730Z,13.20
2022-12-26T11:44:25.601Z,13.20
2022-12-26T11:47:30.888Z,13.90
2022-12-26T11:50:35.326Z,15.10
2022-12-26T11:53:38.465Z,16.50
2022-12-26T11:56:41.575Z,18.00
2022-12-26T11:59:45.006Z,18.90
2022-12-26T12:02:50.238Z,19.30
2022-12-26T12:05:59.065Z,18.90
2022-12-26T12:09:13.051Z,18.60
2022-12-26T12:12:23.735Z,18.60
2022-12-26T12:15:32.613Z,19.10
2022-12-26T12:18:52.138Z,19.50
2022-12-26T12:22:19.235Z,19.50
2022-12-26T12:25:42.396Z,19.00
2022-12-26T12:29:03.731Z,18.50
2022-12-26T12:32:13.694Z,18.30
2022-12-26T12:35:39.521Z,18.20
2022-12-26T12:39:08.102Z,18.50
2022-12-26T12:42:24.480Z,19.10
2022-12-26T12:45:32.491Z,19.80
2022-12-26T12:48:51.667Z,20.50
2022-12-26T12:52:04.728Z,21.50
2022-12-26T12:55:35.556Z,22.50
2022-12-26T12:58:45.327Z,23.80
2022-12-26T13:01:52.918Z,24.50
2022-12-26T13:05:06.016Z,24.70
2022-12-26T13:08:15.169Z,24.20
2022-12-26T13:11:24.431Z,23.10
2022-12-26T13:14:33.244Z,21.90
2022-12-26T13:17:42.491Z,21.20
2022-12-26T13:20:51.150Z,21.00
2022-12-26T13:24:30.348Z,20.60
2022-12-26T13:27:38.327Z,20.00
2022-12-26T13:30:41.644Z,19.50
2022-12-26T13:33:45.169Z,19.00
2022-12-26T13:36:49.929Z,18.50
2022-12-26T13:39:54.711Z,18.40
2022-12-26T13:43:20.302Z,18.60
2022-12-26T13:46:55.703Z,19.10
2022-12-26T13:49:58.880Z,19.40
2022-12-26T13:53:02.170Z,20.60
2022-12-26T13:56:45.817Z,21.50
2022-12-26T14:00:05.797Z,22.10
2022-12-26T14:03:35.784Z,22.20
2022-12-26T14:06:56.106Z,22.30
2022-12-26T14:10:05.923Z,22.10
2022-12-26T14:13:33.719Z,21.60
2022-12-26T14:16:45.250Z,21.10
2022-12-26T14:19:59.461Z,20.40
2022-12-26T14:23:13.487Z,19.60
2022-12-26T14:26:29.867Z,18.70
2022-12-26T14:29:44.538Z,17.80
2022-12-26T14:33:01.649Z,17.00
2022-12-26T14:36:17.531Z,16.20
2022-12-26T14:39:29.650Z,15.60
2022-12-26T14:42:51.132Z,14.80
2022-12-26T14:45:57.640Z,14.30
2022-12-26T14:49:14.663Z,13.80
2022-12-26T14:52:49.109Z,13.30
2022-12-26T14:55:53.950Z,13.00
2022-12-26T14:59:27.902Z,12.70
2022-12-26T15:02:34.958Z,12.40
2022-12-26T15:05:39.991Z,12.20
2022-12-26T15:09:02.326Z,12.00
2022-12-26T15:12:41.082Z,11.70
2022-12-26T15:16:09.597Z,11.50
2022-12-26T15:23:30.233Z,11.10
2022-12-26T15:26:53.353Z,11.00
2022-12-26T15:30:16.842Z,10.80
2022-12-26T15:33:25.701Z,10.60
2022-12-26T15:36:39.245Z,10.50
2022-12-26T15:39:54.918Z,10.40
2022-12-26T15:43:29.773Z,10.20
2022-12-26T15:46:37.436Z,10.10
2022-12-26T15:49:57.702Z,9.90
2022-12-26T15:53:17.372Z,9.80
2022-12-26T15:56:43.479Z,9.70
2022-12-26T16:00:16.859Z,9.50
2022-12-26T16:03:32.068Z,9.40
2022-12-26T16:06:51.131Z,9.30
2022-12-26T16:09:56.298Z,9.20
2022-12-26T16:13:06.794Z,9.20
2022-12-26T16:16:10.773Z,9.10
2022-12-26T16:19:18.721Z,9.10
2022-12-26T16:22:47.794Z,9.00
2022-12-26T16:25:52.236Z,9.00
2022-12-26T16:28:58.905Z,8.90
2022-12-26T16:32:06.155Z,8.80
2022-12-26T16:35:18.758Z,8.70
2022-12-26T16:38:26.250Z,8.70
2022-12-26T16:41:31.222Z,8.50
2022-12-26T16:44:39.782Z,8.50
2022-12-26T16:47:44.546Z,8.50
2022-12-26T16:50:51.056Z,8.40
2022-12-26T16:53:54.378Z,8.40
2022-12-26T16:57:06.980Z,8.30
2022-12-26T17:00:18.899Z,8.30
2022-12-26T17:03:30.476Z,8.30
2022-12-26T17:06:36.507Z,8.10
2022-12-26T17:09:44.823Z,8.00
2022-12-26T17:12:49.083Z,7.90
2022-12-26T17:15:56.929Z,7.80
2022-12-26T17:19:12.183Z,7.80
2022-12-26T17:22:29.153Z,7.80
2022-12-26T17:25:33.900Z,7.70
2022-12-26T17:28:39.297Z,7.80
2022-12-26T17:31:46.793Z,7.90
2022-12-26T17:34:50.111Z,7.90
2022-12-26T17:37:58.030Z,7.90
2022-12-26T17:41:05.339Z,8.00
2022-12-26T17:44:34.915Z,8.00
2022-12-26T17:47:39.447Z,7.90
2022-12-26T17:50:44.883Z,7.80
2022-12-26T17:53:50.805Z,7.80
2022-12-26T17:56:54.324Z,7.70
2022-12-26T17:59:58.472Z,7.60
2022-12-26T18:03:03.070Z,7.70
2022-12-26T18:06:06.947Z,7.70
2022-12-26T18:09:21.072Z,7.70
2022-12-26T18:12:24.342Z,7.80
2022-12-26T18:15:29.116Z,7.70
2022-12-26T18:18:37.257Z,7.80
2022-12-26T18:21:40.422Z,7.80
2022-12-26T18:24:44.206Z,7.70
2022-12-26T18:27:48.018Z,7.80
2022-12-26T18:30:51.585Z,7.80
2022-12-26T18:33:57.322Z,7.80
2022-12-26T18:37:00.455Z,7.90
2022-12-26T18:40:03.760Z,7.90
2022-12-26T18:43:09.444Z,7.90
2022-12-26T18:46:17.786Z,8.00
2022-12-26T18:49:23.206Z,7.90
2022-12-26T18:52:26.428Z,7.90
2022-12-26T18:55:30.882Z,7.80
2022-12-26T18:58:34.859Z,7.80
2022-12-26T19:01:38.238Z,7.70
2022-12-26T19:04:43.263Z,7.70
2022-12-26T19:07:48.491Z,7.60
2022-12-26T19:10:51.980Z,7.60
2022-12-26T19:13:55.724Z,7.40
2022-12-26T19:16:59.524Z,7.30
2022-12-26T19:20:05.048Z,7.20
2022-12-26T19:23:08.726Z,7.20
2022-12-26T19:26:12.959Z,7.10
2022-12-26T19:29:16.483Z,6.90
2022-12-26T19:32:20.247Z,6.80
2022-12-26T19:35:24.813Z,6.70
2022-12-26T19:38:28.197Z,6.70
2022-12-26T19:41:31.652Z,6.70
2022-12-26T19:44:34.809Z,6.60
2022-12-26T19:47:38.311Z,6.50
2022-12-26T19:50:43.312Z,6.50
2022-12-26T19:53:47.709Z,6.50
2022-12-26T19:56:51.277Z,6.40
2022-12-26T19:59:55.120Z,6.40
2022-12-26T20:02:59.017Z,6.40
2022-12-26T20:06:12.346Z,6.40
2022-12-26T20:09:16.665Z,6.40
2022-12-26T20:12:20.125Z,6.40
2022-12-26T20:15:23.938Z,6.30
2022-12-26T20:18:27.197Z,6.20
2022-12-26T20:21:31.940Z,6.20
2022-12-26T20:24:35.759Z,6.20
2022-12-26T20:27:40.855Z,6.20
2022-12-26T20:30:44.431Z,6.20
2022-12-26T20:33:49.984Z,6.10
2022-12-26T20:36:54.677Z,6.10
2022-12-26T20:39:59.279Z,6.10
2022-12-26T20:43:05.379Z,6.00
2022-12-26T20:46:09.904Z,6.00
2022-12-26T20:49:13.873Z,5.90
2022-12-26T20:52:19.287Z,5.90
2022-12-26T20:55:22.865Z,5.80
2022-12-26T20:58:27.167Z,5.90
2022-12-26T21:01:31.005Z,5.90
2022-12-26T21:04:34.769Z,5.90
2022-12-26T21:07:40.250Z,6.00
2022-12-26T21:10:44.044Z,6.00
2022-12-26T21:13:49.303Z,6.00
2022-12-26T21:16:54.014Z,6.10
2022-12-26T21:19:58.002Z,6.10
2022-12-26T21:23:03.160Z,6.10
2022-12-26T21:26:07.146Z,6.10
2022-12-26T21:29:13.731Z,6.10
2022-12-26T21:32:17.410Z,6.10
2022-12-26T21:35:20.901Z,6.10
2022-12-26T21:38:29.279Z,6.10
2022-12-26T21:41:32.486Z,6.20
2022-12-26T21:44:36.884Z,6.20
2022-12-26T21:47:40.132Z,6.20
2022-12-26T21:50:46.056Z,6.20
2022-12-26T21:53:50.576Z,6.30
2022-12-26T21:56:52.751Z,6.30
2022-12-26T21:59:59.280Z,6.30
2022-12-26T22:03:20.936Z,6.40
2022-12-26T22:06:24.126Z,6.40
2022-12-26T22:09:28.664Z,6.40
2022-12-26T22:12:49.287Z,6.40
2022-12-26T22:16:07.537Z,6.50
2022-12-26T22:19:10.838Z,6.60
2022-12-26T22:22:13.995Z,6.60
2022-12-26T22:25:18.958Z,6.60
2022-12-26T22:28:23.468Z,6.60
2022-12-26T22:31:28.935Z,6.60
2022-12-26T22:34:32.092Z,6.60
2022-12-26T22:37:35.248Z,6.60
2022-12-26T22:40:39.763Z,6.60
2022-12-26T22:43:43.799Z,6.60
2022-12-26T22:46:47.054Z,6.70
2022-12-26T22:49:50.242Z,6.80
2022-12-26T22:52:53.393Z,6.80
2022-12-26T22:56:00.950Z,6.80
2022-12-26T22:59:04.142Z,6.90
2022-12-26T23:02:07.423Z,6.90
2022-12-26T23:05:12.295Z,6.80
2022-12-26T23:08:18.776Z,6.60
2022-12-26T23:11:27.392Z,6.40
2022-12-26T23:14:35.557Z,6.30
2022-12-26T23:17:58.834Z,6.40
2022-12-26T23:21:25.987Z,6.40
2022-12-26T23:24:31.903Z,6.10
2022-12-26T23:27:56.049Z,6.20
2022-12-26T23:30:59.252Z,6.30
2022-12-26T23:34:02.472Z,6.40
2022-12-26T23:37:05.735Z,6.40
2022-12-26T23:40:11.812Z,6.50
2022-12-26T23:43:16.482Z,6.50
2022-12-26T23:46:19.700Z,6.60
2022-12-26T23:49:22.902Z,6.70
2022-12-26T23:52:30.322Z,6.80
2022-12-26T23:55:33.938Z,6.80
2022-12-26T23:58:40.018Z,6.90
